createdAt,value
2018-05-09T00:00:43.394Z,20.47
2018-05-09T00:03:13.229Z,21.97
2018-05-09T00:05:44.423Z,23.03
2018-05-09T00:08:14.243Z,23.70
2018-05-09T00:10:43.851Z,21.77
2018-05-09T00:13:13.598Z,20.83
2018-05-09T00:15:43.215Z,21.33
2018-05-09T00:18:14.449Z,23.77
2018-05-09T00:20:44.795Z,21.90
2018-05-09T00:23:18.472Z,20.20
2018-05-09T00:25:51.120Z,20.87
2018-05-09T00:31:19.995Z,31.20
2018-05-09T00:33:50.376Z,24.53
2018-05-09T00:36:19.886Z,26.63
2018-05-09T00:38:51.579Z,25.50
2018-05-09T00:44:43.624Z,24.43
2018-05-09T00:47:13.261Z,25.10
2018-05-09T00:49:43.714Z,29.93
2018-05-09T00:52:13.229Z,29.03
2018-05-09T00:54:43.811Z,32.60
2018-05-09T01:00:36.773Z,23.43
2018-05-09T01:03:07.110Z,21.77
2018-05-09T01:05:40.987Z,24.03
2018-05-09T01:08:10.526Z,28.77
2018-05-09T01:10:41.265Z,24.83
2018-05-09T01:13:23.684Z,25.80
2018-05-09T01:15:58.643Z,24.63
2018-05-09T01:18:28.429Z,23.47
2018-05-09T01:20:59.088Z,24.57
2018-05-09T01:23:28.996Z,25.83
2018-05-09T01:25:59.668Z,24.10
2018-05-09T01:28:30.157Z,24.07
2018-05-09T01:31:03.474Z,29.37
2018-05-09T01:33:41.545Z,21.00
2018-05-09T01:36:13.322Z,22.90
2018-05-09T01:38:43.005Z,34.03
2018-05-09T01:41:12.727Z,26.40
2018-05-09T01:43:43.451Z,27.47
2018-05-09T01:46:14.645Z,21.87
2018-05-09T01:48:44.643Z,26.43
2018-05-09T01:51:16.153Z,23.60
2018-05-09T01:53:50.586Z,22.70
2018-05-09T01:56:20.896Z,22.57
2018-05-09T01:58:50.514Z,19.13
2018-05-09T02:01:20.953Z,25.03
2018-05-09T02:03:50.754Z,21.10
2018-05-09T02:06:26.555Z,24.07
2018-05-09T02:08:57.261Z,28.17
2018-05-09T02:11:27.800Z,23.50
2018-05-09T02:13:59.393Z,25.87
2018-05-09T02:16:29.490Z,17.63
2018-05-09T02:18:59.423Z,20.97
2018-05-09T02:21:29.238Z,22.90
2018-05-09T02:23:59.574Z,40.33
2018-05-09T02:26:33.435Z,52.17
2018-05-09T02:29:03.943Z,45.27
2018-05-09T02:31:35.206Z,46.20
2018-05-09T02:34:05.260Z,30.87
2018-05-09T02:36:35.046Z,37.60
2018-05-09T02:39:12.993Z,46.37
2018-05-09T02:42:02.455Z,37.70
2018-05-09T02:44:32.184Z,36.47
2018-05-09T02:47:04.019Z,46.23
2018-05-09T02:50:00.102Z,43.37
2018-05-09T02:52:44.400Z,53.90
2018-05-09T02:55:15.523Z,41.27
2018-05-09T02:57:48.270Z,43.70
2018-05-09T03:00:18.424Z,25.67
2018-05-09T03:02:49.460Z,22.03
2018-05-09T03:05:19.186Z,19.87
2018-05-09T03:07:49.181Z,21.67
2018-05-09T03:10:29.101Z,27.30
2018-05-09T03:13:01.104Z,21.27
2018-05-09T03:15:33.434Z,19.97
2018-05-09T03:18:07.538Z,20.90
2018-05-09T03:20:41.114Z,24.07
2018-05-09T03:23:16.089Z,23.37
2018-05-09T03:25:47.757Z,18.07
2018-05-09T03:28:19.539Z,19.50
2018-05-09T03:30:52.790Z,18.77
2018-05-09T03:33:25.422Z,24.17
2018-05-09T03:35:56.758Z,18.63
2018-05-09T03:41:47.364Z,23.57
2018-05-09T03:44:16.959Z,20.60
2018-05-09T03:46:48.063Z,19.30
2018-05-09T03:49:17.657Z,16.23
2018-05-09T03:55:08.824Z,17.63
2018-05-09T03:57:38.474Z,18.87
2018-05-09T04:00:09.205Z,18.13
2018-05-09T04:02:49.971Z,19.97
2018-05-09T04:05:30.860Z,17.97
2018-05-09T04:08:12.393Z,20.87
2018-05-09T04:10:42.068Z,17.63
2018-05-09T04:13:11.741Z,18.30
2018-05-09T04:15:41.466Z,20.07
2018-05-09T04:18:11.157Z,22.77
2018-05-09T04:20:40.894Z,23.53
2018-05-09T04:23:10.535Z,17.27
2018-05-09T04:25:40.227Z,32.10
2018-05-09T04:28:09.925Z,30.73
2018-05-09T04:30:43.103Z,30.50
2018-05-09T04:36:43.840Z,25.40
2018-05-09T04:39:13.218Z,35.63
2018-05-09T04:41:42.508Z,31.60
2018-05-09T04:44:12.005Z,28.17
2018-05-09T04:46:42.025Z,31.53
2018-05-09T04:49:11.428Z,22.97
2018-05-09T04:51:40.822Z,31.50
2018-05-09T04:54:10.366Z,25.97
2018-05-09T04:56:39.646Z,23.63
2018-05-09T04:59:09.069Z,23.47
2018-05-09T05:01:38.420Z,24.73
2018-05-09T05:04:07.682Z,24.63
2018-05-09T05:09:57.968Z,19.60
2018-05-09T05:12:27.630Z,21.03
2018-05-09T05:14:57.274Z,25.57
2018-05-09T05:17:26.932Z,19.50
2018-05-09T05:23:16.971Z,21.60
2018-05-09T05:25:46.619Z,22.17
2018-05-09T05:28:16.064Z,22.40
2018-05-09T05:30:45.491Z,20.03
2018-05-09T05:33:14.957Z,25.93
2018-05-09T05:39:05.511Z,31.50
2018-05-09T05:41:35.171Z,27.00
2018-05-09T05:44:04.607Z,26.23
2018-05-09T05:46:34.243Z,31.70
2018-05-09T05:49:03.816Z,35.60
2018-05-09T05:51:33.224Z,27.30
2018-05-09T05:54:02.832Z,24.20
2018-05-09T05:56:33.363Z,21.37
2018-05-09T05:59:02.813Z,21.90
2018-05-09T06:01:32.352Z,19.43
2018-05-09T06:04:01.757Z,21.07
2018-05-09T06:06:31.408Z,26.47
2018-05-09T06:12:21.980Z,20.67
2018-05-09T06:14:51.945Z,23.30
2018-05-09T06:17:21.708Z,25.47
2018-05-09T06:19:51.509Z,25.17
2018-05-09T06:22:21.219Z,23.13
2018-05-09T06:24:50.980Z,25.10
2018-05-09T06:27:20.759Z,28.07
2018-05-09T06:29:50.516Z,23.13
2018-05-09T06:32:20.348Z,27.63
2018-05-09T06:34:50.121Z,25.07
2018-05-09T06:37:19.930Z,25.63
2018-05-09T06:39:49.657Z,45.33
2018-05-09T06:42:19.431Z,54.37
2018-05-09T06:44:49.251Z,77.67
2018-05-09T06:50:39.479Z,57.73
2018-05-09T06:53:08.846Z,56.57
2018-05-09T06:55:38.223Z,36.10
2018-05-09T06:58:07.664Z,26.40
2018-05-09T07:00:37.223Z,24.33
2018-05-09T07:03:06.736Z,34.77
2018-05-09T07:05:36.228Z,25.43
2018-05-09T07:08:05.663Z,31.10
2018-05-09T07:10:35.094Z,27.27
2018-05-09T07:13:04.564Z,26.90
2018-05-09T07:15:34.230Z,26.80
2018-05-09T07:18:03.972Z,25.07
2018-05-09T07:20:33.551Z,25.50
2018-05-09T07:23:02.971Z,23.13
2018-05-09T07:25:32.444Z,27.20
2018-05-09T07:28:01.879Z,23.53
2018-05-09T07:30:31.337Z,23.70
2018-05-09T07:33:00.826Z,31.83
2018-05-09T07:35:30.326Z,32.73
2018-05-09T07:37:59.767Z,30.77
2018-05-09T07:40:29.244Z,28.63
2018-05-09T07:42:59.419Z,25.53
2018-05-09T07:45:28.866Z,27.43
2018-05-09T07:47:58.343Z,23.53
2018-05-09T07:50:27.775Z,25.47
2018-05-09T07:52:57.252Z,27.73
2018-05-09T07:55:26.705Z,25.30
2018-05-09T07:57:56.090Z,25.47
2018-05-09T08:00:25.621Z,25.53
2018-05-09T08:02:55.032Z,23.97
2018-05-09T08:05:24.437Z,27.60
2018-05-09T08:07:53.882Z,27.87
2018-05-09T08:10:23.285Z,25.33
2018-05-09T08:12:52.696Z,27.23
2018-05-09T08:15:22.181Z,27.20
2018-05-09T08:17:51.596Z,25.70
2018-05-09T08:20:20.949Z,21.80
2018-05-09T08:22:50.419Z,25.43
2018-05-09T08:25:19.807Z,26.77
2018-05-09T08:27:50.560Z,27.67
2018-05-09T08:30:20.154Z,24.93
2018-05-09T08:32:49.538Z,32.17
2018-05-09T08:35:18.991Z,29.33
2018-05-09T08:37:48.403Z,28.63
2018-05-09T08:40:18.569Z,26.13
2018-05-09T08:42:48.044Z,25.87
2018-05-09T08:45:17.455Z,27.47
2018-05-09T08:47:46.820Z,35.07
2018-05-09T08:50:17.024Z,29.20
2018-05-09T08:52:46.399Z,29.33
2018-05-09T08:55:15.761Z,29.67
2018-05-09T08:57:45.252Z,29.90
2018-05-09T09:00:15.551Z,32.67
2018-05-09T09:02:45.012Z,29.30
2018-05-09T09:05:14.408Z,32.77
2018-05-09T09:07:43.808Z,31.53
2018-05-09T09:10:13.293Z,34.07
2018-05-09T09:12:43.484Z,31.53
2018-05-09T09:15:12.954Z,30.73
2018-05-09T09:17:42.414Z,33.27
2018-05-09T09:20:11.917Z,30.90
2018-05-09T09:22:41.595Z,28.30
2018-05-09T09:25:11.003Z,26.90
2018-05-09T09:27:40.435Z,32.77
2018-05-09T09:33:41.489Z,53.00
2018-05-09T09:36:10.915Z,45.83
2018-05-09T09:38:40.240Z,47.13
2018-05-09T09:41:09.813Z,39.33
2018-05-09T09:43:39.238Z,42.23
2018-05-09T09:46:08.663Z,30.60
2018-05-09T09:48:38.088Z,32.47
2018-05-09T09:51:08.008Z,27.63
2018-05-09T09:53:37.439Z,34.53
2018-05-09T09:56:06.847Z,33.60
2018-05-09T09:58:36.275Z,38.17
2018-05-09T10:01:05.700Z,32.67
2018-05-09T10:03:35.939Z,35.57
2018-05-09T10:06:06.071Z,36.73
2018-05-09T10:08:35.491Z,38.80
2018-05-09T10:11:04.997Z,33.87
2018-05-09T10:13:34.320Z,30.37
2018-05-09T10:16:03.819Z,34.30
2018-05-09T10:18:33.203Z,45.30
2018-05-09T10:21:02.818Z,32.23
2018-05-09T10:23:32.249Z,29.87
2018-05-09T10:26:01.615Z,33.70
2018-05-09T10:28:31.032Z,30.77
2018-05-09T10:31:00.367Z,28.33
2018-05-09T10:33:29.828Z,31.97
2018-05-09T10:35:59.164Z,34.97
2018-05-09T10:38:28.584Z,33.43
2018-05-09T10:40:57.977Z,32.90
2018-05-09T10:43:27.395Z,36.37
2018-05-09T10:45:57.604Z,33.17
2018-05-09T10:48:27.453Z,30.87
2018-05-09T10:50:56.783Z,34.50
2018-05-09T10:53:26.401Z,32.30
2018-05-09T10:55:56.208Z,29.67
2018-05-09T10:58:25.552Z,26.40
2018-05-09T11:00:56.013Z,79.33
2018-05-09T11:03:25.338Z,104.43
2018-05-09T11:05:54.759Z,109.73
2018-05-09T11:08:24.167Z,93.90
2018-05-09T11:10:53.536Z,99.03
2018-05-09T11:13:23.791Z,78.67
2018-05-09T11:15:53.236Z,69.70
2018-05-09T11:18:22.662Z,75.17
2018-05-09T11:20:52.208Z,90.03
2018-05-09T11:23:21.590Z,79.37
2018-05-09T11:29:12.111Z,53.73
2018-05-09T11:31:42.446Z,46.87
2018-05-09T11:34:12.019Z,47.30
2018-05-09T11:36:41.615Z,46.13
2018-05-09T11:39:20.102Z,50.50
2018-05-09T11:41:49.812Z,46.27
2018-05-09T11:44:23.816Z,52.80
2018-05-09T11:46:53.681Z,51.83
2018-05-09T11:49:23.250Z,54.77
2018-05-09T11:51:58.054Z,53.13
2018-05-09T11:54:27.732Z,52.67
2018-05-09T11:56:57.363Z,63.93
2018-05-09T11:59:27.607Z,62.47
2018-05-09T12:01:57.398Z,76.43
2018-05-09T12:04:27.643Z,65.73
2018-05-09T12:06:57.306Z,63.97
2018-05-09T12:09:26.782Z,64.33
2018-05-09T12:11:56.382Z,54.07
2018-05-09T12:14:25.939Z,50.30
2018-05-09T12:16:55.528Z,55.20
2018-05-09T12:19:25.092Z,64.17
2018-05-09T12:21:54.632Z,43.70
2018-05-09T12:24:24.212Z,49.03
2018-05-09T12:26:53.825Z,49.17
2018-05-09T12:29:23.316Z,48.77
2018-05-09T12:31:52.953Z,49.53
2018-05-09T12:34:22.507Z,86.67
2018-05-09T12:36:52.104Z,82.17
2018-05-09T12:39:22.621Z,72.17
2018-05-09T12:41:52.098Z,82.40
2018-05-09T12:44:23.204Z,65.23
2018-05-09T12:46:52.815Z,66.17
2018-05-09T12:49:22.509Z,69.40
2018-05-09T12:51:53.658Z,64.73
2018-05-09T12:54:23.200Z,59.23
2018-05-09T12:56:53.988Z,65.00
2018-05-09T12:59:24.531Z,69.23
2018-05-09T13:01:54.204Z,66.17
2018-05-09T13:04:23.744Z,58.60
2018-05-09T13:06:54.137Z,58.13
2018-05-09T13:09:23.625Z,58.60
2018-05-09T13:11:53.184Z,57.63
2018-05-09T13:15:05.077Z,53.80
2018-05-09T13:17:35.233Z,46.77
2018-05-09T13:20:04.717Z,52.77
2018-05-09T13:22:34.959Z,58.33
2018-05-09T13:25:04.500Z,71.20
2018-05-09T13:27:34.202Z,58.53
2018-05-09T13:30:03.869Z,58.93
2018-05-09T13:32:33.425Z,51.43
2018-05-09T13:35:03.509Z,53.13
2018-05-09T13:37:33.155Z,46.40
2018-05-09T13:40:02.674Z,49.27
2018-05-09T13:42:32.215Z,48.53
2018-05-09T13:45:01.877Z,46.57
2018-05-09T13:47:31.425Z,44.57
2018-05-09T13:50:00.970Z,58.67
2018-05-09T13:52:30.536Z,61.50
2018-05-09T13:55:00.006Z,50.50
2018-05-09T13:57:29.560Z,45.93
2018-05-09T13:59:59.219Z,44.97
2018-05-09T14:02:28.831Z,46.73
2018-05-09T14:04:59.078Z,46.63
2018-05-09T14:07:28.606Z,49.53
2018-05-09T14:09:58.262Z,43.23
2018-05-09T14:12:28.089Z,47.03
2018-05-09T14:15:05.585Z,45.13
2018-05-09T14:17:49.744Z,44.77
2018-05-09T14:20:28.968Z,54.30
2018-05-09T14:23:02.517Z,45.17
2018-05-09T14:25:35.591Z,47.07
2018-05-09T14:28:05.759Z,40.70
2018-05-09T14:30:35.872Z,45.03
2018-05-09T14:33:05.450Z,47.07
2018-05-09T14:35:37.108Z,44.23
2018-05-09T14:38:06.695Z,52.10
2018-05-09T14:40:37.148Z,47.00
2018-05-09T14:43:06.854Z,38.80
2018-05-09T14:45:37.288Z,36.87
2018-05-09T14:48:07.513Z,41.13
2018-05-09T14:50:37.567Z,36.93
2018-05-09T14:53:08.256Z,41.23
2018-05-09T14:55:39.887Z,35.63
2018-05-09T14:58:10.077Z,39.50
2018-05-09T15:00:39.465Z,40.23
2018-05-09T15:03:18.774Z,39.93
2018-05-09T15:05:50.202Z,40.53
2018-05-09T15:08:29.532Z,36.67
2018-05-09T15:11:02.190Z,34.93
2018-05-09T15:13:31.884Z,37.10
2018-05-09T15:16:05.031Z,37.10
2018-05-09T15:18:35.972Z,37.80
2018-05-09T15:24:25.872Z,39.63
2018-05-09T15:26:57.188Z,38.63
2018-05-09T15:29:26.642Z,35.93
2018-05-09T15:31:56.650Z,32.47
2018-05-09T15:34:26.900Z,38.30
2018-05-09T15:36:57.508Z,37.27
2018-05-09T15:39:28.241Z,34.90
2018-05-09T15:41:58.228Z,34.63
2018-05-09T15:44:27.653Z,31.80
2018-05-09T15:46:59.361Z,42.63
2018-05-09T15:49:30.416Z,36.37
2018-05-09T15:52:03.236Z,32.33
2018-05-09T15:54:32.619Z,30.67
2018-05-09T15:57:02.634Z,33.43
2018-05-09T16:02:30.336Z,29.93
2018-05-09T16:04:59.685Z,28.67
2018-05-09T16:07:29.315Z,35.63
2018-05-09T16:10:00.188Z,34.97
2018-05-09T16:12:30.244Z,31.70
2018-05-09T16:14:59.999Z,32.73
2018-05-09T16:17:30.693Z,35.07
2018-05-09T16:20:00.433Z,27.93
2018-05-09T16:22:29.700Z,33.10
2018-05-09T16:25:00.014Z,29.70
2018-05-09T16:27:29.259Z,33.33
2018-05-09T16:29:58.649Z,33.23
2018-05-09T16:32:28.063Z,37.40
2018-05-09T16:34:57.412Z,33.17
2018-05-09T16:37:26.650Z,39.60
2018-05-09T16:39:56.076Z,31.07
2018-05-09T16:42:25.399Z,34.10
2018-05-09T16:44:58.129Z,34.60
2018-05-09T16:47:30.513Z,38.63
2018-05-09T16:50:00.237Z,51.53
2018-05-09T16:52:38.009Z,47.33
2018-05-09T16:55:07.789Z,52.43
2018-05-09T16:57:43.459Z,46.03
2018-05-09T17:00:13.080Z,34.27
2018-05-09T17:02:42.790Z,33.13
2018-05-09T17:05:12.032Z,32.90
2018-05-09T17:07:41.421Z,37.47
2018-05-09T17:10:15.532Z,27.47
2018-05-09T17:12:44.945Z,37.30
2018-05-09T17:15:14.277Z,29.63
2018-05-09T17:17:43.607Z,40.73
2018-05-09T17:20:13.680Z,26.95
2018-05-09T17:22:42.995Z,27.45
2018-05-09T17:25:12.260Z,27.07
2018-05-09T17:27:41.670Z,29.87
2018-05-09T17:30:10.924Z,32.17
2018-05-09T17:32:41.348Z,26.53
2018-05-09T17:35:10.617Z,26.10
2018-05-09T17:37:39.930Z,30.35
2018-05-09T17:40:09.284Z,23.05
2018-05-09T17:42:39.450Z,31.62
2018-05-09T17:45:10.005Z,26.50
2018-05-09T17:47:53.353Z,27.17
2018-05-09T17:50:22.945Z,24.77
2018-05-09T17:52:52.253Z,25.75
2018-05-09T17:55:21.562Z,28.40
2018-05-09T17:57:53.238Z,31.55
2018-05-09T18:00:22.648Z,30.77
2018-05-09T18:02:52.055Z,27.62
2018-05-09T18:05:26.994Z,32.53
2018-05-09T18:07:57.163Z,27.10
2018-05-09T18:10:26.590Z,24.23
2018-05-09T18:12:55.948Z,36.13
2018-05-09T18:15:29.991Z,35.45
2018-05-09T18:17:59.446Z,22.48
2018-05-09T18:20:28.920Z,24.67
2018-05-09T18:22:59.140Z,27.67
2018-05-09T18:25:28.576Z,28.20
2018-05-09T18:27:57.965Z,32.42
2018-05-09T18:30:27.220Z,36.40
2018-05-09T18:32:57.347Z,24.27
2018-05-09T18:35:26.947Z,31.33
2018-05-09T18:37:57.488Z,28.38
2018-05-09T18:40:26.815Z,35.58
2018-05-09T18:42:57.309Z,33.28
2018-05-09T18:45:26.654Z,34.42
2018-05-09T18:47:56.108Z,34.38
2018-05-09T18:50:25.443Z,30.42
2018-05-09T18:52:59.660Z,38.40
2018-05-09T18:55:28.934Z,38.33
2018-05-09T18:57:58.742Z,29.75
2018-05-09T19:00:28.072Z,32.75
2018-05-09T19:03:05.804Z,40.12
2018-05-09T19:05:35.199Z,32.33
2018-05-09T19:08:05.421Z,34.73
2018-05-09T19:10:34.614Z,32.57
2018-05-09T19:13:04.432Z,174.32
2018-05-09T19:15:33.801Z,35.63
2018-05-09T19:18:02.992Z,44.03
2018-05-09T19:20:32.392Z,42.33
2018-05-09T19:23:02.287Z,33.50
2018-05-09T19:25:31.789Z,77.85
2018-05-09T19:28:01.180Z,32.25
2018-05-09T19:30:30.969Z,37.95
2018-05-09T19:33:01.119Z,41.10
2018-05-09T19:35:30.425Z,40.00
2018-05-09T19:37:59.784Z,41.23
2018-05-09T19:40:29.173Z,50.80
2018-05-09T19:42:58.485Z,39.73
2018-05-09T19:45:27.869Z,43.73
2018-05-09T19:47:57.243Z,37.60
2018-05-09T19:50:27.506Z,45.03
2018-05-09T19:52:56.804Z,36.10
2018-05-09T19:55:26.640Z,40.37
2018-05-09T19:57:55.903Z,44.57
2018-05-09T20:00:25.306Z,40.27
2018-05-09T20:02:54.642Z,71.43
2018-05-09T20:05:24.130Z,62.57
2018-05-09T20:07:53.494Z,40.90
2018-05-09T20:10:22.844Z,43.00
2018-05-09T20:12:53.719Z,60.97
2018-05-09T20:18:52.802Z,71.53
2018-05-09T20:21:22.498Z,34.37
2018-05-09T20:23:54.708Z,40.97
2018-05-09T20:26:25.060Z,38.80
2018-05-09T20:32:26.675Z,39.87
2018-05-09T20:59:36.818Z,57.87
2018-05-09T21:02:07.001Z,41.73
2018-05-09T21:22:03.775Z,51.10
2018-05-09T21:24:38.263Z,40.50
2018-05-09T21:27:09.024Z,40.90
2018-05-09T21:29:39.411Z,45.73
2018-05-09T21:32:09.938Z,42.93
2018-05-09T21:34:39.947Z,58.57
2018-05-09T21:37:15.536Z,41.90
2018-05-09T21:43:06.067Z,44.70
2018-05-09T21:45:36.309Z,53.73
2018-05-09T21:48:05.867Z,49.43
2018-05-09T21:50:35.340Z,49.07
2018-05-09T21:53:04.865Z,45.47
2018-05-09T21:59:01.241Z,39.37
2018-05-09T22:01:30.853Z,42.60
2018-05-09T22:04:04.567Z,43.47
2018-05-09T22:06:34.205Z,40.70
2018-05-09T22:09:03.740Z,47.37
2018-05-09T22:11:33.904Z,42.17
2018-05-09T22:14:03.528Z,44.80
2018-05-09T22:16:33.206Z,49.60
2018-05-09T23:40:38.280Z,56.70
2018-05-09T23:43:07.924Z,49.60
2018-05-09T23:45:38.793Z,62.07
2018-05-09T23:48:09.211Z,68.20
2018-05-09T23:50:39.066Z,52.07
2018-05-09T23:53:08.809Z,59.47
2018-05-09T23:55:38.696Z,53.57
2018-05-09T23:58:08.375Z,56.73
